Time;durP1;ratioP1;P1;durP2;ratioP2;P2;SDS_P1;SDS_P2;PMS_P1;PMS_P2;Temp;Humidity;BMP_temperature;BMP_pressure;BME280_temperature;BME280_humidity;BME280_pressure;Samples;Min_cycle;Max_cycle;Signal;HPM_P1;HPM_P2
2021/03/06 00:02:11;;;;;;;2.05;1.85;;;17.80;47.90;;;;;;5106908;28;20204;-58
2021/03/06 00:04:37;;;;;;;3.72;2.03;;;17.80;48.00;;;;;;5107042;28;20661;-56
2021/03/06 00:07:03;;;;;;;2.97;2.03;;;17.80;47.90;;;;;;5107059;28;20295;-55
2021/03/06 00:09:28;;;;;;;2.85;2.08;;;17.80;47.90;;;;;;5106860;28;20177;-52
2021/03/06 00:11:54;;;;;;;2.72;2.03;;;17.70;47.80;;;;;;5106350;28;20181;-55
2021/03/06 00:14:19;;;;;;;3.05;1.95;;;17.70;47.80;;;;;;5106767;28;20177;-56
2021/03/06 00:16:45;;;;;;;2.42;2.20;;;17.70;47.90;;;;;;5107021;28;20179;-54
2021/03/06 00:19:11;;;;;;;2.60;1.80;;;17.70;47.80;;;;;;5106488;28;20690;-58
2021/03/06 00:21:36;;;;;;;2.10;1.73;;;17.70;47.80;;;;;;5106514;28;20191;-56
2021/03/06 00:24:02;;;;;;;3.78;2.05;;;17.70;47.80;;;;;;5106761;28;20189;-53
2021/03/06 00:26:27;;;;;;;2.95;1.85;;;17.60;47.80;;;;;;5106653;28;20219;-58
2021/03/06 00:28:53;;;;;;;3.08;1.98;;;17.60;47.70;;;;;;5106461;28;20539;-56
2021/03/06 00:31:18;;;;;;;2.92;1.90;;;17.60;47.80;;;;;;5106458;28;20280;-54
2021/03/06 00:33:44;;;;;;;2.40;1.92;;;17.60;48.40;;;;;;5106238;28;20514;-49
2021/03/06 00:36:10;;;;;;;2.42;2.00;;;17.60;47.80;;;;;;5106133;28;20983;-49
2021/03/06 00:38:35;;;;;;;2.17;1.98;;;17.60;47.80;;;;;;5106351;28;20583;-54
2021/03/06 00:41:01;;;;;;;2.30;2.10;;;17.60;47.80;;;;;;5087566;28;20194;-51
2021/03/06 00:43:26;;;;;;;1.95;1.85;;;17.50;47.70;;;;;;5106121;28;21092;-52
2021/03/06 00:45:52;;;;;;;2.90;2.05;;;17.50;47.70;;;;;;5087393;28;20219;-53
2021/03/06 00:48:18;;;;;;;1.90;1.70;;;17.50;47.70;;;;;;5105727;28;20291;-53
2021/03/06 00:50:43;;;;;;;3.17;2.05;;;17.50;47.70;;;;;;5105764;28;20243;-53
2021/03/06 00:53:09;;;;;;;2.55;2.17;;;17.50;47.90;;;;;;5105737;28;20266;-52
2021/03/06 00:55:34;;;;;;;2.72;1.80;;;17.50;48.50;;;;;;5105851;28;20177;-54
2021/03/06 00:58:00;;;;;;;3.08;1.77;;;17.50;47.70;;;;;;5105671;28;21078;-53
2021/03/06 01:00:26;;;;;;;2.90;1.83;;;17.50;47.70;;;;;;5105691;28;20191;-51
2021/03/06 01:02:51;;;;;;;2.05;1.55;;;17.50;47.80;;;;;;5105416;28;20180;-52
2021/03/06 01:05:17;;;;;;;2.58;1.90;;;17.40;47.70;;;;;;5105489;28;20610;-51
2021/03/06 01:07:42;;;;;;;1.75;1.60;;;17.40;47.80;;;;;;5105793;28;20213;-51
2021/03/06 01:10:16;;;;;;;3.75;1.83;;;17.40;47.80;;;;;;5105514;28;20172;-54
2021/03/06 01:12:42;;;;;;;2.47;1.95;;;17.40;47.80;;;;;;5105474;28;20183;-54
2021/03/06 01:15:08;;;;;;;2.53;1.58;;;17.40;47.80;;;;;;5105155;28;20601;-54
2021/03/06 01:17:33;;;;;;;2.20;2.00;;;17.40;47.80;;;;;;5105484;28;20270;-50
2021/03/06 01:19:59;;;;;;;2.85;1.58;;;17.40;47.80;;;;;;5105390;28;20647;-56
2021/03/06 01:22:24;;;;;;;1.75;1.50;;;17.30;47.70;;;;;;5104907;28;20231;-53
2021/03/06 01:24:50;;;;;;;2.10;1.90;;;17.30;47.70;;;;;;5105278;28;20169;-56
2021/03/06 01:27:16;;;;;;;2.75;1.90;;;17.30;47.70;;;;;;5104596;28;20209;-53
2021/03/06 01:29:41;;;;;;;1.98;1.42;;;17.30;47.80;;;;;;5105110;28;20179;-51
2021/03/06 01:32:07;;;;;;;2.95;1.80;;;17.30;47.80;;;;;;5104230;28;20177;-50
2021/03/06 01:34:32;;;;;;;2.03;1.67;;;17.30;47.80;;;;;;5105156;28;20173;-50
2021/03/06 01:36:58;;;;;;;2.08;1.60;;;17.30;47.80;;;;;;5104990;28;20247;-53
2021/03/06 01:39:24;;;;;;;2.42;1.70;;;17.20;47.80;;;;;;5104903;28;20165;-52
2021/03/06 01:41:50;;;;;;;1.98;1.75;;;17.30;47.80;;;;;;5104870;28;20252;-51
2021/03/06 01:44:15;;;;;;;2.40;1.88;;;17.20;47.70;;;;;;5105056;28;20208;-53
2021/03/06 01:46:41;;;;;;;2.00;1.63;;;17.20;47.80;;;;;;5105170;28;20215;-57
2021/03/06 01:49:07;;;;;;;2.30;1.80;;;17.20;47.80;;;;;;5104689;28;20173;-56
2021/03/06 01:51:32;;;;;;;3.08;2.03;;;17.20;47.80;;;;;;5104746;28;20180;-52
2021/03/06 01:53:58;;;;;;;3.15;1.65;;;17.20;47.80;;;;;;5086275;28;20193;-55
2021/03/06 01:56:23;;;;;;;2.38;1.98;;;17.20;47.70;;;;;;5086840;28;20173;-52
2021/03/06 01:58:49;;;;;;;2.58;1.77;;;17.20;47.90;;;;;;5086912;28;20184;-57
2021/03/06 02:01:15;;;;;;;2.15;1.50;;;17.10;47.70;;;;;;5104886;28;20230;-57
2021/03/06 02:03:40;;;;;;;1.60;1.50;;;17.10;47.80;;;;;;5086470;28;20184;-52
2021/03/06 02:06:06;;;;;;;2.70;1.98;;;17.10;47.80;;;;;;5104376;28;20185;-53
2021/03/06 02:08:31;;;;;;;2.65;1.52;;;17.10;47.80;;;;;;5104694;28;20185;-54
2021/03/06 02:10:57;;;;;;;2.20;1.95;;;17.10;47.80;;;;;;5104662;28;20169;-54
2021/03/06 02:13:41;;;;;;;3.15;1.80;;;17.10;47.80;;;;;;5104678;28;20653;-53
2021/03/06 02:16:31;;;;;;;1.67;1.55;;;17.10;47.90;;;;;;5104656;28;20596;-57
2021/03/06 02:19:21;;;;;;;2.40;1.85;;;17.10;47.90;;;;;;5085940;28;20177;-52
2021/03/06 02:21:53;;;;;;;1.50;1.40;;;17.10;47.80;;;;;;5104519;28;20250;-55
2021/03/06 02:24:27;;;;;;;2.33;1.48;;;17.10;47.80;;;;;;5104122;28;20177;-53
2021/03/06 02:27:15;;;;;;;1.95;1.70;;;17.00;47.80;;;;;;5104354;28;20205;-54
2021/03/06 02:29:41;;;;;;;1.92;1.63;;;17.00;47.80;;;;;;5104096;28;20634;-51
2021/03/06 02:32:29;;;;;;;3.20;1.88;;;17.00;47.80;;;;;;5104525;28;20563;-47
2021/03/06 02:35:13;;;;;;;1.70;1.35;;;17.00;47.80;;;;;;5104103;28;20287;-50
2021/03/06 02:37:42;;;;;;;2.08;1.48;;;17.00;47.80;;;;;;5086158;28;20173;-51
2021/03/06 02:40:08;;;;;;;2.33;1.60;;;16.90;47.80;;;;;;5086503;28;20177;-51
2021/03/06 02:42:34;;;;;;;1.70;1.60;;;17.00;47.90;;;;;;5087332;28;20165;-53
2021/03/06 02:44:59;;;;;;;2.65;1.80;;;16.90;47.90;;;;;;5108330;28;20222;-54
2021/03/06 02:47:25;;;;;;;2.10;1.90;;;16.90;47.90;;;;;;5090100;28;20209;-53
2021/03/06 02:49:52;;;;;;;1.88;1.52;;;16.90;47.90;;;;;;5108401;28;20181;-55
2021/03/06 02:52:17;;;;;;;2.95;1.35;;;16.90;47.90;;;;;;5108157;28;20207;-52
2021/03/06 02:54:44;;;;;;;2.97;1.55;;;16.90;47.90;;;;;;5108151;28;20169;-56
2021/03/06 02:57:09;;;;;;;1.63;1.52;;;16.90;47.90;;;;;;5108286;28;20239;-52
2021/03/06 03:00:00;;;;;;;1.77;1.42;;;16.90;47.90;;;;;;5089446;28;20979;-50
2021/03/06 03:02:42;;;;;;;1.67;1.40;;;16.90;48.00;;;;;;5107908;28;20267;-48
2021/03/06 03:05:09;;;;;;;1.90;1.60;;;16.90;48.00;;;;;;5091047;28;20689;-54
2021/03/06 03:07:42;;;;;;;1.67;1.50;;;16.90;48.00;;;;;;5107698;28;20224;-57
2021/03/06 03:10:10;;;;;;;1.92;1.35;;;16.80;47.90;;;;;;5107902;28;20209;-52
2021/03/06 03:12:38;;;;;;;2.47;1.42;;;16.80;48.00;;;;;;5107725;28;20242;-54
2021/03/06 03:15:18;;;;;;;1.73;1.48;;;16.80;47.90;;;;;;5090046;28;20161;-53
2021/03/06 03:17:48;;;;;;;1.65;1.45;;;16.80;48.00;;;;;;5091142;28;20177;-56
2021/03/06 03:20:34;;;;;;;1.50;1.40;;;16.80;48.00;;;;;;5089583;28;20183;-57
2021/03/06 03:23:22;;;;;;;1.83;1.65;;;16.80;47.90;;;;;;5107751;28;20173;-51
2021/03/06 03:25:48;;;;;;;1.58;1.30;;;16.80;48.00;;;;;;5092007;28;20665;-54
2021/03/06 03:28:13;;;;;;;1.52;1.42;;;16.80;48.00;;;;;;5089241;28;20208;-53
2021/03/06 03:30:39;;;;;;;1.55;1.45;;;16.70;48.00;;;;;;5089116;28;20173;-51
2021/03/06 03:33:10;;;;;;;2.33;1.45;;;16.70;48.00;;;;;;5089398;28;20686;-52
2021/03/06 03:35:37;;;;;;;1.92;1.40;;;16.70;48.00;;;;;;5089241;28;20173;-50
2021/03/06 03:38:02;;;;;;;1.65;1.30;;;16.70;48.00;;;;;;5089490;28;20177;-54
2021/03/06 03:40:28;;;;;;;1.58;1.30;;;16.70;48.00;;;;;;5107551;28;20180;-50
2021/03/06 03:42:53;;;;;;;1.42;1.33;;;16.70;48.00;;;;;;5107236;28;20172;-53
2021/03/06 03:45:20;;;;;;;1.85;1.33;;;16.70;48.00;;;;;;5089004;28;20540;-52
2021/03/06 03:47:46;;;;;;;1.48;1.38;;;16.70;48.00;;;;;;5107110;28;20230;-55
2021/03/06 03:50:13;;;;;;;1.42;1.33;;;16.70;48.10;;;;;;5107005;28;20177;-53
2021/03/06 03:52:39;;;;;;;1.70;1.27;;;16.70;48.00;;;;;;5107276;28;20165;-53
2021/03/06 03:55:06;;;;;;;1.52;1.30;;;16.70;48.00;;;;;;5087953;28;20177;-50
2021/03/06 03:57:32;;;;;;;1.42;1.33;;;16.60;48.00;;;;;;5106948;28;20523;-51
2021/03/06 04:00:00;;;;;;;1.50;1.40;;;16.70;48.10;;;;;;5088944;28;20207;-54
2021/03/06 04:02:27;;;;;;;1.58;1.20;;;16.60;48.00;;;;;;5106561;28;20177;-52
2021/03/06 04:04:53;;;;;;;2.15;1.40;;;16.60;48.00;;;;;;5106554;28;20256;-56
2021/03/06 04:07:18;;;;;;;1.90;1.40;;;16.60;48.10;;;;;;5106458;28;20227;-50
2021/03/06 04:09:44;;;;;;;1.98;1.30;;;16.60;48.00;;;;;;5106657;28;20879;-53
2021/03/06 04:12:10;;;;;;;1.55;1.13;;;16.60;48.10;;;;;;5106967;28;20179;-53
2021/03/06 04:14:35;;;;;;;1.50;1.30;;;16.60;48.10;;;;;;5106571;28;20176;-54
2021/03/06 04:17:01;;;;;;;4.72;1.70;;;16.50;48.10;;;;;;5106726;28;20238;-56
2021/03/06 04:19:26;;;;;;;2.33;1.27;;;16.60;48.10;;;;;;5106354;28;20253;-57
2021/03/06 04:21:52;;;;;;;1.13;1.02;;;16.50;48.00;;;;;;5106334;28;20180;-51
2021/03/06 04:24:17;;;;;;;1.73;1.20;;;16.50;48.10;;;;;;5106416;28;20199;-52
2021/03/06 04:26:43;;;;;;;1.42;1.20;;;16.50;48.00;;;;;;5106493;28;20197;-56
2021/03/06 04:29:08;;;;;;;1.40;1.30;;;16.50;48.00;;;;;;5106437;28;20169;-56
2021/03/06 04:31:34;;;;;;;1.00;0.90;;;16.50;48.10;;;;;;5106660;28;20306;-55
2021/03/06 04:34:00;;;;;;;1.65;1.20;;;16.50;48.10;;;;;;5106722;28;20188;-51
2021/03/06 04:36:25;;;;;;;1.45;1.02;;;16.50;48.10;;;;;;5106233;28;20260;-55
2021/03/06 04:38:51;;;;;;;1.55;1.25;;;16.50;48.10;;;;;;5106072;28;20188;-57
2021/03/06 04:41:16;;;;;;;1.83;1.38;;;16.50;48.10;;;;;;5106671;28;20176;-53
2021/03/06 04:43:42;;;;;;;1.20;1.10;;;16.40;48.00;;;;;;5106338;28;20173;-57
2021/03/06 04:46:07;;;;;;;1.42;1.33;;;16.40;48.00;;;;;;5106248;28;20172;-52
2021/03/06 04:48:35;;;;;;;2.72;1.23;;;16.40;48.00;;;;;;5105976;28;20204;-57
2021/03/06 04:51:00;;;;;;;2.10;1.42;;;16.40;48.00;;;;;;5106345;28;20169;-57
2021/03/06 04:53:26;;;;;;;1.63;1.15;;;16.40;48.00;;;;;;5106093;28;20184;-55
2021/03/06 04:55:51;;;;;;;1.23;1.13;;;16.40;48.00;;;;;;5106270;28;20698;-54
2021/03/06 04:58:17;;;;;;;2.00;1.30;;;16.40;48.10;;;;;;5106063;28;20180;-56
2021/03/06 05:00:42;;;;;;;1.67;1.30;;;16.30;48.00;;;;;;5106013;28;20169;-49
2021/03/06 05:03:08;;;;;;;1.25;1.10;;;16.40;48.10;;;;;;5105689;28;20285;-52
2021/03/06 05:05:34;;;;;;;1.40;1.17;;;16.30;48.00;;;;;;5105735;28;20188;-52
2021/03/06 05:07:59;;;;;;;1.65;1.10;;;16.30;48.00;;;;;;5105633;28;20582;-51
2021/03/06 05:10:25;;;;;;;1.10;1.00;;;16.30;48.00;;;;;;5105454;28;20181;-53
2021/03/06 05:12:51;;;;;;;1.88;1.20;;;16.30;48.10;;;;;;5105336;28;20255;-50
2021/03/06 05:15:16;;;;;;;1.20;1.08;;;16.30;48.00;;;;;;5105453;28;20178;-52
2021/03/06 05:17:42;;;;;;;0.90;0.90;;;16.30;48.00;;;;;;5104979;28;20173;-51
2021/03/06 05:20:08;;;;;;;1.10;1.02;;;16.30;48.00;;;;;;5105391;28;20187;-53
2021/03/06 05:22:33;;;;;;;2.15;1.20;;;16.30;48.10;;;;;;5105319;28;21045;-56
2021/03/06 05:24:59;;;;;;;1.33;1.10;;;16.20;48.10;;;;;;5105303;28;20181;-56
2021/03/06 05:27:24;;;;;;;1.23;1.00;;;16.20;48.00;;;;;;5105152;28;20312;-51
2021/03/06 05:29:50;;;;;;;1.35;1.25;;;16.20;48.10;;;;;;5105096;28;20348;-54
2021/03/06 05:32:16;;;;;;;1.88;1.20;;;16.20;48.00;;;;;;5105262;28;20653;-51
2021/03/06 05:34:41;;;;;;;1.23;1.13;;;16.20;48.10;;;;;;5105188;28;20534;-52
2021/03/06 05:37:07;;;;;;;3.03;1.10;;;16.20;48.00;;;;;;5105003;28;20569;-51
2021/03/06 05:39:32;;;;;;;1.45;1.30;;;16.20;48.00;;;;;;5104962;28;20173;-50
2021/03/06 05:41:58;;;;;;;1.65;1.30;;;16.20;48.10;;;;;;5104836;28;20234;-53
2021/03/06 05:44:23;;;;;;;1.55;1.17;;;16.10;48.00;;;;;;5087014;28;20169;-53
2021/03/06 05:46:49;;;;;;;0.90;0.90;;;16.20;48.00;;;;;;5086935;28;20203;-58
2021/03/06 05:49:15;;;;;;;1.80;1.52;;;16.10;48.00;;;;;;5086948;28;20165;-57
2021/03/06 05:51:40;;;;;;;1.58;1.20;;;16.20;48.10;;;;;;5104651;28;20188;-53
2021/03/06 05:54:08;;;;;;;2.72;1.20;;;16.20;48.10;;;;;;5105244;28;20169;-52
2021/03/06 05:56:40;;;;;;;1.83;1.23;;;16.10;48.10;;;;;;5104876;28;20196;-54
2021/03/06 05:59:10;;;;;;;1.50;1.20;;;16.10;48.10;;;;;;5104893;28;20256;-49
2021/03/06 06:01:37;;;;;;;1.73;1.30;;;16.10;48.10;;;;;;5104527;28;20184;-54
2021/03/06 06:04:03;;;;;;;2.85;1.10;;;16.10;48.20;;;;;;5104104;28;20181;-52
2021/03/06 06:06:29;;;;;;;2.22;1.10;;;16.10;48.00;;;;;;5104681;28;20217;-51
2021/03/06 06:08:57;;;;;;;1.50;1.17;;;16.10;47.80;;;;;;5104459;28;20176;-52
2021/03/06 06:11:22;;;;;;;1.23;1.10;;;16.20;48.10;;;;;;5104753;28;20176;-57
2021/03/06 06:13:48;;;;;;;1.35;1.25;;;16.40;48.10;;;;;;5104674;28;20173;-54
2021/03/06 06:16:14;;;;;;;1.15;1.00;;;16.70;47.90;;;;;;5104424;28;20177;-56
2021/03/06 06:18:40;;;;;;;1.85;1.42;;;16.90;47.40;;;;;;5085672;28;20709;-51
2021/03/06 06:21:05;;;;;;;1.20;1.10;;;17.30;47.20;;;;;;5086182;28;20165;-54
2021/03/06 06:23:31;;;;;;;1.40;1.30;;;17.60;46.60;;;;;;5104343;28;20169;-54
2021/03/06 06:25:56;;;;;;;1.33;1.17;;;17.80;46.30;;;;;;5104530;28;20230;-56
2021/03/06 06:28:22;;;;;;;1.35;1.05;;;18.10;45.90;;;;;;5086211;28;20605;-52
2021/03/06 06:31:10;;;;;;;1.23;1.13;;;18.30;45.40;;;;;;5104291;28;20604;-56
2021/03/06 06:33:36;;;;;;;0.98;0.93;;;18.50;45.00;;;;;;5104037;28;20187;-56
2021/03/06 06:36:01;;;;;;;1.40;1.13;;;18.60;44.80;;;;;;5104552;28;20256;-54
2021/03/06 06:38:41;;;;;;;2.65;1.40;;;18.70;44.70;;;;;;5104194;28;20658;-55
2021/03/06 06:41:07;;;;;;;1.95;1.00;;;18.70;44.70;;;;;;5087857;28;20210;-53
2021/03/06 06:43:33;;;;;;;1.50;0.90;;;18.80;44.70;;;;;;5086330;28;20177;-56
2021/03/06 06:45:58;;;;;;;1.17;1.00;;;18.80;44.60;;;;;;5085814;28;20187;-59
2021/03/06 06:48:24;;;;;;;1.10;0.98;;;18.80;44.60;;;;;;5085874;28;20209;-55
2021/03/06 06:50:49;;;;;;;1.35;0.95;;;18.70;44.60;;;;;;5104026;28;20219;-55
2021/03/06 06:53:25;;;;;;;1.85;1.02;;;18.70;44.70;;;;;;5104328;28;20236;-56
2021/03/06 06:55:51;;;;;;;1.17;1.08;;;18.70;44.80;;;;;;5104036;28;20222;-56
2021/03/06 06:58:16;;;;;;;1.70;1.33;;;18.70;44.70;;;;;;5103969;28;20250;-55
2021/03/06 07:00:42;;;;;;;1.08;0.98;;;18.70;44.70;;;;;;5104247;28;20173;-53
2021/03/06 07:03:07;;;;;;;1.88;1.13;;;18.70;44.70;;;;;;5104260;28;20653;-53
2021/03/06 07:05:43;;;;;;;1.30;1.20;;;18.70;44.70;;;;;;5104074;28;20185;-52
2021/03/06 07:08:21;;;;;;;1.08;0.90;;;18.70;44.90;;;;;;5104227;28;20220;-51
2021/03/06 07:10:47;;;;;;;0.77;0.77;;;18.70;44.90;;;;;;5086630;28;20225;-56
2021/03/06 07:13:13;;;;;;;1.50;1.00;;;18.60;44.90;;;;;;5103749;28;20181;-53
2021/03/06 07:15:39;;;;;;;2.50;1.10;;;18.60;45.00;;;;;;5103886;28;20213;-52
2021/03/06 07:18:06;;;;;;;1.02;0.93;;;18.50;45.10;;;;;;5104019;28;20208;-52
2021/03/06 07:20:41;;;;;;;2.20;1.02;;;18.40;45.30;;;;;;5103675;28;20255;-56
2021/03/06 07:23:25;;;;;;;1.77;1.10;;;18.30;45.50;;;;;;5104057;28;20186;-57
2021/03/06 07:25:55;;;;;;;1.35;1.20;;;18.20;45.60;;;;;;5103905;28;20169;-57
2021/03/06 07:28:21;;;;;;;1.00;0.90;;;18.20;45.90;;;;;;5103771;28;20201;-56
2021/03/06 07:30:48;;;;;;;1.25;0.90;;;18.20;45.90;;;;;;5107090;28;20242;-53
2021/03/06 07:33:16;;;;;;;1.95;1.35;;;18.20;45.90;;;;;;5107619;28;20248;-53
2021/03/06 07:35:42;;;;;;;1.42;1.00;;;18.20;45.90;;;;;;5107256;28;20181;-52
2021/03/06 07:38:08;;;;;;;0.90;0.90;;;18.20;45.90;;;;;;5107476;28;20180;-52
2021/03/06 07:40:37;;;;;;;1.33;0.95;;;18.20;46.00;;;;;;5107546;28;20307;-55
2021/03/06 07:43:20;;;;;;;0.90;0.80;;;18.30;46.00;;;;;;5107276;28;20214;-57
2021/03/06 07:45:47;;;;;;;1.02;0.77;;;18.30;45.90;;;;;;5107326;28;20618;-59
2021/03/06 07:48:14;;;;;;;1.27;0.88;;;18.30;45.90;;;;;;5089268;28;20204;-62
2021/03/06 07:50:44;;;;;;;1.30;1.20;;;18.40;45.90;;;;;;5107529;28;20180;-61
2021/03/06 07:53:09;;;;;;;2.40;0.77;;;18.50;45.80;;;;;;5106752;28;20530;-63
2021/03/06 07:55:35;;;;;;;1.77;0.82;;;18.60;45.70;;;;;;5088808;28;20184;-61
2021/03/06 07:58:05;;;;;;;1.10;1.00;;;18.60;45.50;;;;;;5107341;28;20579;-62
2021/03/06 08:00:38;;;;;;;1.08;0.75;;;18.60;45.60;;;;;;5106783;28;20173;-62
2021/03/06 08:03:24;;;;;;;1.63;0.88;;;18.50;45.70;;;;;;5106704;28;20258;-64
2021/03/06 08:05:51;;;;;;;1.38;1.17;;;18.50;45.90;;;;;;5106637;28;20177;-61
2021/03/06 08:08:32;;;;;;;3.85;1.58;;;18.50;46.10;;;;;;5088344;28;20216;-61
2021/03/06 08:11:11;;;;;;;1.40;1.10;;;18.50;46.60;;;;;;5106764;28;20173;-63
2021/03/06 08:13:36;;;;;;;3.85;1.50;;;18.50;46.70;;;;;;5106896;28;20173;-62
2021/03/06 08:16:23;;;;;;;1.88;1.15;;;18.50;46.70;;;;;;5106471;28;20650;-62
2021/03/06 08:18:49;;;;;;;0.85;0.80;;;18.50;46.70;;;;;;5106509;28;20666;-61
2021/03/06 08:21:39;;;;;;;1.60;1.20;;;18.60;46.80;;;;;;5106407;28;20179;-59
2021/03/06 08:24:14;;;;;;;2.35;1.30;;;18.60;46.70;;;;;;5088025;28;20173;-61
2021/03/06 08:27:02;;;;;;;0.93;0.82;;;18.60;46.70;;;;;;5106431;28;21008;-61
2021/03/06 08:29:27;;;;;;;1.70;0.98;;;18.60;46.90;;;;;;5106115;28;20188;-62
2021/03/06 08:32:03;;;;;;;1.70;1.23;;;18.50;47.00;;;;;;5106292;28;20169;-60
2021/03/06 08:34:31;;;;;;;2.65;1.10;;;18.50;47.20;;;;;;5087986;28;20285;-60
2021/03/06 08:37:12;;;;;;;1.50;1.25;;;18.50;47.30;;;;;;5106396;28;20185;-62
2021/03/06 08:39:42;;;;;;;2.58;1.30;;;18.40;47.50;;;;;;5106002;28;20169;-63
2021/03/06 08:42:08;;;;;;;4.55;1.10;;;18.30;47.60;;;;;;5088092;28;20252;-62
2021/03/06 08:44:33;;;;;;;2.47;1.23;;;18.30;47.80;;;;;;5105539;28;20798;-65
2021/03/06 08:46:59;;;;;;;4.90;1.27;;;18.30;47.80;;;;;;5106026;28;20258;-62
2021/03/06 08:49:24;;;;;;;3.35;1.67;;;18.30;47.90;;;;;;5087946;28;20621;-62
2021/03/06 08:51:52;;;;;;;2.92;1.10;;;18.20;48.10;;;;;;5087568;28;20604;-63
2021/03/06 08:54:17;;;;;;;3.28;1.27;;;18.20;48.10;;;;;;5087295;28;20169;-61
2021/03/06 08:56:43;;;;;;;2.92;1.67;;;18.20;48.10;;;;;;5087698;28;20231;-62
2021/03/06 08:59:09;;;;;;;3.03;1.45;;;18.20;48.10;;;;;;5105466;28;20188;-63
2021/03/06 09:01:34;;;;;;;9.48;1.60;;;18.20;48.10;;;;;;5105555;28;20181;-62
2021/03/06 09:04:00;;;;;;;3.60;1.52;;;18.20;48.10;;;;;;5105621;28;20169;-62
2021/03/06 09:06:35;;;;;;;5.05;1.50;;;18.20;48.00;;;;;;5105364;28;20582;-62
2021/03/06 09:09:00;;;;;;;4.65;1.60;;;18.20;48.10;;;;;;5105718;28;20897;-61
2021/03/06 09:11:26;;;;;;;4.55;1.27;;;18.20;48.00;;;;;;5105471;28;20169;-52
2021/03/06 09:13:52;;;;;;;4.78;1.63;;;18.20;48.10;;;;;;5087537;28;20325;-61
2021/03/06 09:16:18;;;;;;;7.75;1.70;;;18.20;48.00;;;;;;5086962;28;21071;-62
2021/03/06 09:18:43;;;;;;;3.58;1.75;;;18.20;48.10;;;;;;5105600;28;20194;-62
2021/03/06 09:21:20;;;;;;;4.13;1.55;;;18.20;48.10;;;;;;5105413;28;20183;-61
2021/03/06 09:23:51;;;;;;;2.25;1.40;;;18.20;48.30;;;;;;5105340;28;20169;-61
2021/03/06 09:26:19;;;;;;;2.80;1.48;;;18.20;48.40;;;;;;5087502;28;20169;-61
2021/03/06 09:28:45;;;;;;;4.13;1.75;;;18.30;48.40;;;;;;5105144;28;20204;-63
2021/03/06 09:31:12;;;;;;;5.05;1.67;;;18.30;48.10;;;;;;5105475;28;20201;-61
2021/03/06 09:33:38;;;;;;;3.50;1.58;;;18.40;48.20;;;;;;5105177;28;20169;-60
2021/03/06 09:36:04;;;;;;;4.05;1.50;;;18.50;48.10;;;;;;5087283;28;20205;-61
2021/03/06 09:38:30;;;;;;;2.30;1.13;;;18.50;48.10;;;;;;5105226;28;20227;-61
2021/03/06 09:40:55;;;;;;;2.28;1.33;;;18.50;47.90;;;;;;5105251;28;20169;-61
2021/03/06 09:43:25;;;;;;;2.17;1.10;;;18.50;47.90;;;;;;5105424;28;20173;-62
2021/03/06 09:45:50;;;;;;;4.93;1.33;;;18.50;48.00;;;;;;5104979;28;20641;-62
2021/03/06 09:48:16;;;;;;;2.08;0.80;;;18.50;48.10;;;;;;5086834;28;20211;-60
2021/03/06 09:50:45;;;;;;;2.22;1.02;;;18.40;48.00;;;;;;5105028;28;20174;-62
2021/03/06 09:53:12;;;;;;;2.40;1.17;;;18.30;48.10;;;;;;5104359;28;20222;-61
2021/03/06 09:55:38;;;;;;;4.22;1.20;;;18.20;48.30;;;;;;5105112;28;20185;-60
2021/03/06 09:58:17;;;;;;;2.45;1.17;;;18.20;48.40;;;;;;5104630;28;20173;-60
2021/03/06 10:00:43;;;;;;;3.40;1.10;;;18.10;48.40;;;;;;5104547;28;20176;-61
2021/03/06 10:03:08;;;;;;;4.15;1.55;;;18.10;48.50;;;;;;5104502;28;20959;-60
2021/03/06 10:05:34;;;;;;;2.10;1.00;;;18.00;48.50;;;;;;5104513;28;20177;-60
2021/03/06 10:08:00;;;;;;;2.05;1.10;;;18.00;48.60;;;;;;5086035;28;20209;-62
2021/03/06 10:10:25;;;;;;;2.15;1.10;;;18.00;48.60;;;;;;5086734;28;20207;-62
2021/03/06 10:12:52;;;;;;;2.10;1.35;;;18.00;48.60;;;;;;5086336;28;20195;-60
2021/03/06 10:15:17;;;;;;;2.05;1.02;;;18.00;48.70;;;;;;5104549;28;20223;-61
2021/03/06 10:17:43;;;;;;;2.55;1.10;;;17.90;48.70;;;;;;5086404;28;20177;-60
2021/03/06 10:20:09;;;;;;;1.23;1.02;;;17.90;48.70;;;;;;5086434;28;20190;-61
2021/03/06 10:22:45;;;;;;;1.67;1.20;;;17.90;48.80;;;;;;5104120;28;20204;-60
2021/03/06 10:25:11;;;;;;;3.10;1.65;;;17.80;48.80;;;;;;5104406;28;20176;-60
2021/03/06 10:27:44;;;;;;;1.77;1.20;;;17.80;48.60;;;;;;5104277;28;20224;-62
2021/03/06 10:30:14;;;;;;;2.28;1.25;;;17.90;48.70;;;;;;5104608;28;20177;-60
2021/03/06 10:32:53;;;;;;;1.88;1.13;;;17.80;48.60;;;;;;5104190;28;20177;-61
2021/03/06 10:35:44;;;;;;;2.85;1.30;;;17.80;48.60;;;;;;5104370;28;20270;-60
2021/03/06 10:38:18;;;;;;;2.20;1.02;;;17.80;48.60;;;;;;5103933;28;20169;-61
2021/03/06 10:40:52;;;;;;;1.98;1.15;;;17.90;48.60;;;;;;5104234;28;20249;-61
2021/03/06 10:43:40;;;;;;;1.30;0.98;;;18.00;48.50;;;;;;5104171;28;21033;-61
2021/03/06 10:46:22;;;;;;;3.53;1.38;;;18.10;48.60;;;;;;5104315;28;20180;-58
2021/03/06 10:48:55;;;;;;;3.08;1.10;;;18.20;48.60;;;;;;5086095;28;20205;-60
2021/03/06 10:51:21;;;;;;;2.65;1.10;;;18.30;48.70;;;;;;5103996;28;20534;-62
2021/03/06 10:54:03;;;;;;;2.60;0.85;;;18.40;48.70;;;;;;5103741;28;20204;-60
2021/03/06 10:56:29;;;;;;;4.47;1.10;;;18.40;48.80;;;;;;5104201;28;20187;-62
2021/03/06 10:58:54;;;;;;;4.65;1.23;;;18.50;48.80;;;;;;5103857;28;20180;-62
2021/03/06 11:01:20;;;;;;;4.57;1.33;;;18.50;48.80;;;;;;5104020;28;20184;-60
2021/03/06 11:03:46;;;;;;;3.97;0.98;;;18.50;48.80;;;;;;5087422;28;20226;-60
2021/03/06 11:06:12;;;;;;;2.25;1.20;;;18.60;48.90;;;;;;5089530;28;20173;-61
2021/03/06 11:08:38;;;;;;;4.85;1.48;;;18.60;49.10;;;;;;5107746;28;20293;-62
2021/03/06 11:11:04;;;;;;;4.43;1.20;;;18.60;49.00;;;;;;5107901;28;20173;-62
2021/03/06 11:13:59;;;;;;;4.13;1.10;;;18.60;48.90;;;;;;5107560;28;20186;-61
2021/03/06 11:16:38;;;;;;;5.22;1.30;;;18.50;48.90;;;;;;5089686;28;20292;-62
2021/03/06 11:19:04;;;;;;;5.30;1.10;;;18.50;48.80;;;;;;5107566;28;20547;-62
2021/03/06 11:21:30;;;;;;;2.70;1.00;;;18.50;48.80;;;;;;5089165;28;20177;-61
2021/03/06 11:23:55;;;;;;;3.13;1.30;;;18.40;48.70;;;;;;5107845;28;20685;-62
2021/03/06 11:26:21;;;;;;;4.00;0.90;;;18.40;48.70;;;;;;5107563;28;20173;-62
2021/03/06 11:28:46;;;;;;;2.83;1.05;;;18.50;48.60;;;;;;5089445;28;20273;-66
2021/03/06 11:31:12;;;;;;;3.80;1.00;;;18.50;48.60;;;;;;5107533;28;20196;-62
2021/03/06 11:33:37;;;;;;;4.10;1.45;;;18.50;48.60;;;;;;5107139;28;20230;-65
2021/03/06 11:36:03;;;;;;;5.22;1.20;;;18.60;48.60;;;;;;5107468;28;20173;-64
2021/03/06 11:38:29;;;;;;;4.78;1.30;;;18.60;49.20;;;;;;5107793;28;20626;-65
2021/03/06 11:40:55;;;;;;;2.65;1.00;;;18.50;48.60;;;;;;5107461;28;20173;-60
2021/03/06 11:43:20;;;;;;;3.70;0.90;;;18.50;48.60;;;;;;5107567;28;20200;-61
2021/03/06 11:45:46;;;;;;;4.70;1.10;;;18.50;48.70;;;;;;5107135;28;20565;-62
2021/03/06 11:48:12;;;;;;;2.92;1.10;;;18.50;48.60;;;;;;5089018;28;20508;-64
2021/03/06 11:50:43;;;;;;;3.90;1.20;;;18.60;48.60;;;;;;5107458;28;20611;-64
2021/03/06 11:53:09;;;;;;;4.10;1.52;;;18.60;48.50;;;;;;5106816;28;20264;-61
2021/03/06 11:55:35;;;;;;;2.60;1.13;;;18.70;48.50;;;;;;5107211;28;20752;-64
2021/03/06 11:58:00;;;;;;;2.95;1.10;;;18.60;48.50;;;;;;5089012;28;20177;-61
2021/03/06 12:00:29;;;;;;;3.55;1.10;;;18.70;48.40;;;;;;5106984;28;20188;-61
2021/03/06 12:02:55;;;;;;;2.50;0.93;;;18.70;48.40;;;;;;5106521;28;20165;-60
2021/03/06 12:05:20;;;;;;;3.72;1.20;;;18.70;48.40;;;;;;5106954;28;20673;-61
2021/03/06 12:07:46;;;;;;;3.38;0.90;;;18.70;48.40;;;;;;5106779;28;20205;-61
2021/03/06 12:10:17;;;;;;;3.15;0.90;;;18.70;48.50;;;;;;5107107;28;20314;-61
2021/03/06 12:12:44;;;;;;;4.07;1.05;;;18.70;48.30;;;;;;5106611;28;20216;-61
2021/03/06 12:15:11;;;;;;;3.78;1.30;;;18.80;48.40;;;;;;5105364;28;20572;-63
2021/03/06 12:17:37;;;;;;;6.07;1.15;;;18.80;48.40;;;;;;5106683;28;20226;-63
2021/03/06 12:20:03;;;;;;;4.40;1.25;;;18.70;48.40;;;;;;5106263;28;20576;-61
2021/03/06 12:22:29;;;;;;;4.28;1.02;;;18.60;48.60;;;;;;5106621;28;20726;-61
2021/03/06 12:24:55;;;;;;;1.90;0.88;;;18.60;48.70;;;;;;5088136;28;20260;-61
2021/03/06 12:27:20;;;;;;;1.42;1.00;;;18.50;48.80;;;;;;5106426;28;20232;-60
2021/03/06 12:29:46;;;;;;;2.70;1.05;;;18.50;48.80;;;;;;5106751;28;20627;-59
2021/03/06 12:32:11;;;;;;;3.10;1.17;;;18.40;48.80;;;;;;5106228;28;20174;-61
2021/03/06 12:34:37;;;;;;;2.22;1.00;;;18.50;48.80;;;;;;5106064;28;20205;-60
2021/03/06 12:37:03;;;;;;;4.75;1.15;;;18.60;48.80;;;;;;5106698;28;20588;-61
2021/03/06 12:39:28;;;;;;;3.20;1.02;;;18.50;48.80;;;;;;5106507;28;20280;-60
2021/03/06 12:41:54;;;;;;;1.65;0.80;;;18.40;48.80;;;;;;5106279;28;20199;-61
2021/03/06 12:44:20;;;;;;;1.30;1.00;;;18.40;48.90;;;;;;5106033;28;20374;-62
2021/03/06 12:46:49;;;;;;;3.38;1.20;;;18.40;48.90;;;;;;5105872;28;20665;-63
2021/03/06 12:49:15;;;;;;;2.92;0.93;;;18.40;48.90;;;;;;5106374;28;20173;-61
2021/03/06 12:51:41;;;;;;;1.58;0.93;;;18.30;48.90;;;;;;5106359;28;20284;-62
2021/03/06 12:54:06;;;;;;;1.83;0.77;;;18.30;49.10;;;;;;5106228;28;20292;-64